Time;durP1;ratioP1;P1;durP2;ratioP2;P2;SDS_P1;SDS_P2;PMS_P1;PMS_P2;Temp;Humidity;BMP_temperature;BMP_pressure;BME280_temperature;BME280_humidity;BME280_pressure;Samples;Min_cycle;Max_cycle;Signal;HPM_P1;HPM_P2
2022/08/06 00:02:13;;;;;;;3.45;1.70;;;20.10;99.90;;;;;;5131763;27;20383;-75
2022/08/06 00:04:39;;;;;;;6.78;2.40;;;20.10;99.90;;;;;;5130487;27;20079;-75
2022/08/06 00:07:05;;;;;;;2.88;1.92;;;20.10;99.90;;;;;;5130766;27;20038;-74
2022/08/06 00:09:31;;;;;;;2.13;1.75;;;20.10;99.90;;;;;;5129810;27;20023;-75
2022/08/06 00:11:59;;;;;;;3.35;1.98;;;20.10;99.90;;;;;;5131645;27;20023;-75
2022/08/06 00:14:28;;;;;;;3.42;1.75;;;20.10;99.90;;;;;;5129286;27;20468;-75
2022/08/06 00:16:55;;;;;;;2.95;1.58;;;20.10;99.90;;;;;;5132275;27;20127;-75
2022/08/06 00:19:21;;;;;;;4.85;2.17;;;20.20;99.90;;;;;;5132159;27;20050;-78
2022/08/06 00:21:47;;;;;;;5.05;2.10;;;20.10;99.90;;;;;;5124980;27;20313;-75
2022/08/06 00:24:13;;;;;;;4.10;1.75;;;20.10;99.90;;;;;;5132311;27;20483;-75
2022/08/06 00:26:40;;;;;;;5.22;1.70;;;20.00;99.90;;;;;;5131449;27;20135;-75
2022/08/06 00:29:05;;;;;;;1.95;1.77;;;20.10;99.90;;;;;;5132786;27;20067;-75
2022/08/06 00:31:31;;;;;;;1.98;1.70;;;20.00;99.90;;;;;;5131598;27;20079;-76
2022/08/06 00:34:00;;;;;;;1.77;1.50;;;19.90;99.90;;;;;;5132502;27;20063;-76
2022/08/06 00:36:26;;;;;;;2.25;1.70;;;20.00;99.90;;;;;;5131757;27;20239;-76
2022/08/06 00:38:52;;;;;;;3.35;1.50;;;20.00;99.90;;;;;;5131889;27;20023;-76
2022/08/06 00:41:19;;;;;;;4.32;1.60;;;20.00;99.90;;;;;;5132752;27;20027;-78
2022/08/06 00:43:45;;;;;;;5.88;1.55;;;20.00;99.70;;;;;;5131491;27;20027;-74
2022/08/06 00:46:11;;;;;;;2.22;1.67;;;20.00;99.60;;;;;;5132469;27;20033;-76
2022/08/06 00:48:37;;;;;;;1.83;1.40;;;20.00;99.30;;;;;;5131209;27;20094;-76
2022/08/06 00:51:03;;;;;;;3.13;1.30;;;20.00;99.00;;;;;;5132313;27;20099;-75
2022/08/06 00:53:29;;;;;;;3.03;1.38;;;20.00;98.80;;;;;;5131153;27;20395;-76
2022/08/06 00:55:55;;;;;;;3.05;1.63;;;19.90;98.90;;;;;;5132508;27;20075;-75
2022/08/06 00:58:21;;;;;;;1.60;1.50;;;19.90;98.70;;;;;;5131763;27;20405;-78
2022/08/06 01:00:46;;;;;;;2.25;1.30;;;19.90;98.70;;;;;;5131839;27;20042;-76
2022/08/06 01:03:16;;;;;;;2.38;1.58;;;19.90;98.90;;;;;;5132266;27;20152;-75
2022/08/06 01:05:44;;;;;;;4.57;1.67;;;19.90;98.80;;;;;;5131239;27;20062;-75
2022/08/06 01:08:11;;;;;;;4.47;1.63;;;19.90;98.70;;;;;;5131997;27;20031;-74
2022/08/06 01:10:37;;;;;;;1.95;1.33;;;19.90;98.70;;;;;;5131062;27;20102;-75
2022/08/06 01:13:03;;;;;;;3.30;1.42;;;19.80;98.40;;;;;;5132042;27;20490;-76
2022/08/06 01:15:28;;;;;;;6.35;1.35;;;19.80;98.30;;;;;;5131487;27;20031;-75
2022/08/06 01:18:19;;;;;;;4.63;1.30;;;19.80;98.20;;;;;;5131963;27;20038;-75
2022/08/06 01:20:52;;;;;;;1.85;1.10;;;19.80;98.20;;;;;;5122790;27;20065;-76
2022/08/06 01:23:49;;;;;;;2.97;1.30;;;19.80;97.90;;;;;;5112544;28;20424;-76
2022/08/06 01:26:18;;;;;;;5.53;1.30;;;19.70;98.00;;;;;;5109455;28;20048;-76
2022/08/06 01:28:52;;;;;;;4.82;1.30;;;19.60;97.90;;;;;;5120341;28;20196;-75
2022/08/06 01:31:33;;;;;;;5.30;1.60;;;19.60;97.80;;;;;;5131852;28;20054;-76
2022/08/06 01:34:05;;;;;;;2.40;1.10;;;19.70;97.50;;;;;;5131824;28;20052;-75
2022/08/06 01:36:45;;;;;;;4.75;1.65;;;19.70;97.20;;;;;;5124539;28;20072;-75
2022/08/06 01:39:13;;;;;;;2.90;1.35;;;19.70;97.40;;;;;;5125902;28;20027;-74
2022/08/06 01:41:43;;;;;;;2.50;1.15;;;19.60;97.40;;;;;;5130809;28;20027;-74
2022/08/06 01:44:15;;;;;;;2.53;1.15;;;19.60;97.50;;;;;;5130406;27;20486;-74
2022/08/06 01:46:46;;;;;;;2.08;1.20;;;19.60;97.50;;;;;;5122935;28;20023;-74
2022/08/06 01:49:15;;;;;;;2.63;1.20;;;19.50;97.60;;;;;;5131446;28;20030;-74
2022/08/06 01:51:43;;;;;;;3.85;1.50;;;19.50;97.60;;;;;;5130774;28;20024;-75
2022/08/06 01:54:10;;;;;;;1.50;1.00;;;19.50;97.90;;;;;;5131605;28;20030;-75
2022/08/06 01:56:39;;;;;;;2.45;0.90;;;19.40;98.00;;;;;;5130123;28;20031;-75
2022/08/06 01:59:06;;;;;;;2.22;1.20;;;19.40;97.80;;;;;;5130636;28;20027;-76
2022/08/06 02:01:34;;;;;;;5.50;1.60;;;19.40;97.70;;;;;;5130606;28;20031;-76
2022/08/06 02:04:02;;;;;;;2.85;0.95;;;19.40;97.70;;;;;;5125611;28;20027;-75
2022/08/06 02:06:40;;;;;;;1.15;1.00;;;19.40;97.30;;;;;;5130329;28;20070;-76
2022/08/06 02:09:11;;;;;;;2.97;1.38;;;19.30;97.70;;;;;;5131114;28;20463;-75
2022/08/06 02:11:38;;;;;;;3.03;1.20;;;19.30;97.50;;;;;;5130361;28;20030;-76
2022/08/06 02:14:06;;;;;;;2.10;1.40;;;19.20;97.80;;;;;;5130869;28;20476;-75
2022/08/06 02:16:36;;;;;;;2.13;1.00;;;19.20;97.40;;;;;;5130315;28;20054;-75
2022/08/06 02:19:05;;;;;;;2.10;1.13;;;19.10;97.80;;;;;;5131494;28;20030;-75
2022/08/06 02:21:32;;;;;;;1.85;1.40;;;19.10;97.70;;;;;;5130431;28;20038;-74
2022/08/06 02:24:04;;;;;;;2.35;0.98;;;19.10;97.90;;;;;;5131137;28;20383;-75
2022/08/06 02:26:32;;;;;;;2.53;1.20;;;19.10;97.70;;;;;;5129248;28;20047;-74
2022/08/06 02:29:00;;;;;;;3.42;1.67;;;19.10;97.70;;;;;;5131243;28;20472;-75
2022/08/06 02:31:25;;;;;;;2.40;1.13;;;19.00;97.90;;;;;;5130200;28;20066;-75
2022/08/06 02:33:51;;;;;;;4.32;1.60;;;19.00;97.90;;;;;;5133362;27;20027;-75
2022/08/06 02:36:29;;;;;;;2.05;1.40;;;19.00;98.00;;;;;;5134574;27;20027;-76
2022/08/06 02:39:03;;;;;;;4.20;1.35;;;19.00;97.90;;;;;;5132770;27;20031;-75
2022/08/06 02:41:34;;;;;;;3.60;1.20;;;18.90;97.90;;;;;;5133978;27;20110;-74
2022/08/06 02:44:09;;;;;;;3.45;1.20;;;18.90;98.10;;;;;;5132577;27;20019;-76
2022/08/06 02:46:42;;;;;;;4.43;1.20;;;18.80;98.50;;;;;;5133902;27;20023;-76
2022/08/06 02:49:19;;;;;;;2.80;1.60;;;18.80;98.20;;;;;;5133595;27;20080;-76
2022/08/06 02:51:53;;;;;;;3.00;1.25;;;18.70;98.50;;;;;;5134511;27;20027;-76
2022/08/06 02:54:38;;;;;;;1.50;0.90;;;18.80;98.50;;;;;;5134609;27;20159;-78
2022/08/06 02:57:07;;;;;;;2.38;1.25;;;18.70;98.30;;;;;;5134113;27;20038;-75
2022/08/06 02:59:42;;;;;;;2.45;1.00;;;18.70;98.40;;;;;;5129431;27;20039;-75
2022/08/06 03:02:11;;;;;;;2.03;1.20;;;18.80;98.40;;;;;;5134471;27;20034;-75
2022/08/06 03:04:41;;;;;;;3.75;1.08;;;18.70;98.60;;;;;;5133727;27;20019;-75
2022/08/06 03:07:10;;;;;;;3.13;1.20;;;18.70;98.60;;;;;;5132832;27;20038;-76
2022/08/06 03:09:37;;;;;;;3.08;1.10;;;18.80;98.40;;;;;;5133769;27;20030;-75
2022/08/06 03:12:05;;;;;;;4.25;1.58;;;18.80;98.30;;;;;;5134229;27;20567;-75
2022/08/06 03:14:32;;;;;;;4.88;1.17;;;18.70;98.50;;;;;;5133184;27;20023;-75
2022/08/06 03:16:59;;;;;;;2.50;1.10;;;18.70;98.60;;;;;;5134319;27;20023;-74
2022/08/06 03:19:27;;;;;;;2.10;1.30;;;18.70;98.60;;;;;;5133608;27;20027;-75
2022/08/06 03:21:54;;;;;;;1.63;1.10;;;18.70;98.80;;;;;;5134018;27;20031;-75
2022/08/06 03:24:22;;;;;;;2.50;1.08;;;18.70;98.80;;;;;;5133833;27;20482;-77
2022/08/06 03:26:49;;;;;;;3.63;1.20;;;18.60;98.80;;;;;;5133266;27;20039;-75
2022/08/06 03:29:15;;;;;;;5.05;1.52;;;18.50;99.00;;;;;;5134215;27;20098;-76
2022/08/06 03:31:41;;;;;;;3.80;1.45;;;18.50;99.10;;;;;;5133335;27;20069;-74
2022/08/06 03:34:08;;;;;;;2.78;1.40;;;18.60;98.90;;;;;;5134128;27;20123;-75
2022/08/06 03:36:36;;;;;;;1.60;1.00;;;18.60;98.90;;;;;;5133334;27;20039;-74
2022/08/06 03:39:05;;;;;;;2.28;1.20;;;18.50;99.20;;;;;;5131723;27;20024;-74
2022/08/06 03:41:35;;;;;;;1.25;0.98;;;18.50;99.00;;;;;;5132652;27;20031;-74
2022/08/06 03:44:02;;;;;;;2.60;1.02;;;18.50;99.20;;;;;;5132707;27;20020;-74
2022/08/06 03:46:48;;;;;;;3.90;1.40;;;18.50;99.10;;;;;;5133131;27;20035;-74
2022/08/06 03:49:25;;;;;;;2.67;1.08;;;18.40;99.40;;;;;;5133964;27;20035;-74
2022/08/06 03:51:54;;;;;;;3.90;1.58;;;18.50;99.30;;;;;;5133452;27;20016;-75
2022/08/06 03:54:25;;;;;;;1.85;1.20;;;18.40;99.30;;;;;;5132624;27;20023;-77
2022/08/06 03:56:53;;;;;;;2.35;1.20;;;18.40;99.30;;;;;;5132757;27;20031;-74
2022/08/06 03:59:21;;;;;;;3.55;1.30;;;18.40;99.30;;;;;;5131772;27;20031;-78
2022/08/06 04:01:48;;;;;;;7.50;1.20;;;18.30;99.60;;;;;;5132163;27;20464;-74
2022/08/06 04:04:15;;;;;;;2.78;1.30;;;18.30;99.70;;;;;;5114907;27;20361;-74
2022/08/06 04:06:43;;;;;;;3.35;1.30;;;18.30;99.80;;;;;;5129716;27;20034;-75
2022/08/06 04:09:10;;;;;;;4.32;1.30;;;18.30;99.80;;;;;;5133103;27;20023;-74
2022/08/06 04:11:36;;;;;;;3.15;1.20;;;18.30;99.70;;;;;;5131725;27;20498;-75
2022/08/06 04:14:04;;;;;;;4.35;1.42;;;18.30;99.80;;;;;;5132886;27;20031;-74
2022/08/06 04:16:31;;;;;;;1.90;1.23;;;18.30;99.80;;;;;;5131890;27;20045;-75
2022/08/06 04:18:57;;;;;;;4.00;1.30;;;18.20;99.80;;;;;;5112606;27;20027;-73
2022/08/06 04:21:24;;;;;;;1.80;1.33;;;18.20;99.90;;;;;;5131747;27;20023;-78
2022/08/06 04:23:50;;;;;;;1.65;1.17;;;18.30;99.80;;;;;;5132914;27;20031;-75
2022/08/06 04:26:22;;;;;;;3.03;1.20;;;18.30;99.90;;;;;;5132012;27;20047;-75
2022/08/06 04:28:52;;;;;;;5.10;1.30;;;18.30;99.90;;;;;;5132088;27;20061;-75
2022/08/06 04:31:20;;;;;;;1.17;1.05;;;18.30;99.90;;;;;;5132189;27;20075;-75
2022/08/06 04:33:47;;;;;;;3.58;1.27;;;18.30;99.90;;;;;;5132038;27;20486;-76
2022/08/06 04:36:13;;;;;;;4.95;1.35;;;18.40;99.90;;;;;;5132499;27;20483;-75
2022/08/06 04:38:40;;;;;;;3.47;1.38;;;18.30;99.90;;;;;;5131306;27;20598;-74
2022/08/06 04:41:06;;;;;;;3.80;1.40;;;18.30;99.90;;;;;;5125710;27;20567;-75
2022/08/06 04:43:32;;;;;;;2.53;1.20;;;18.30;99.90;;;;;;5131669;27;20054;-75
2022/08/06 04:45:59;;;;;;;2.90;1.27;;;18.30;99.90;;;;;;5131124;27;20042;-75
2022/08/06 04:48:26;;;;;;;2.05;1.20;;;18.30;99.90;;;;;;5131568;27;20368;-76
2022/08/06 04:50:52;;;;;;;4.95;1.55;;;18.30;99.90;;;;;;5132291;27;20034;-75
2022/08/06 04:53:19;;;;;;;4.70;1.30;;;18.40;99.90;;;;;;5132475;27;20019;-75
2022/08/06 04:55:46;;;;;;;1.33;1.13;;;18.30;99.90;;;;;;5131502;27;20023;-74
2022/08/06 04:58:14;;;;;;;2.25;1.20;;;18.40;99.90;;;;;;5131681;27;20114;-74
2022/08/06 05:00:42;;;;;;;2.65;1.40;;;18.30;99.90;;;;;;5130922;27;20019;-75
2022/08/06 05:03:08;;;;;;;2.67;1.23;;;18.40;99.90;;;;;;5132004;27;20031;-75
2022/08/06 05:05:57;;;;;;;3.75;1.40;;;18.30;99.90;;;;;;5131513;27;20034;-75
2022/08/06 05:08:26;;;;;;;3.08;1.52;;;18.30;99.90;;;;;;5131050;27;20505;-78
2022/08/06 05:11:13;;;;;;;1.95;1.40;;;18.30;99.90;;;;;;5132310;27;20023;-74
2022/08/06 05:13:43;;;;;;;1.98;1.55;;;18.40;99.90;;;;;;5130765;27;20208;-75
2022/08/06 05:16:14;;;;;;;2.45;1.52;;;18.40;99.90;;;;;;5132326;27;20028;-74
2022/08/06 05:18:57;;;;;;;3.15;1.40;;;18.40;99.90;;;;;;5129085;27;20023;-75
2022/08/06 05:21:32;;;;;;;5.38;1.48;;;18.50;99.90;;;;;;5131327;27;20023;-78
2022/08/06 05:23:57;;;;;;;2.58;1.40;;;18.50;99.90;;;;;;5131578;27;20031;-75
2022/08/06 05:26:24;;;;;;;3.60;1.45;;;18.50;99.90;;;;;;5130423;27;20047;-75
2022/08/06 05:28:50;;;;;;;2.75;1.35;;;18.40;99.90;;;;;;5131986;28;20184;-75
2022/08/06 05:31:27;;;;;;;3.45;2.10;;;18.40;99.90;;;;;;5131665;28;20110;-74
2022/08/06 05:33:53;;;;;;;5.55;1.73;;;18.40;99.90;;;;;;5131610;28;20084;-75
2022/08/06 05:36:18;;;;;;;2.53;1.80;;;18.40;99.90;;;;;;5113218;28;20030;-75
2022/08/06 05:38:44;;;;;;;3.13;1.48;;;18.30;99.90;;;;;;5129276;28;20106;-74
2022/08/06 05:41:11;;;;;;;1.95;1.55;;;18.30;99.90;;;;;;5131791;28;20023;-74
2022/08/06 05:43:38;;;;;;;3.40;1.40;;;18.30;99.90;;;;;;5130173;27;20105;-74
2022/08/06 05:46:08;;;;;;;4.00;1.67;;;18.20;99.90;;;;;;5130865;28;20046;-74
2022/08/06 05:48:41;;;;;;;2.80;1.88;;;18.20;99.90;;;;;;5131254;28;20106;-75
2022/08/06 05:51:12;;;;;;;1.48;1.38;;;18.20;99.90;;;;;;5120119;28;20566;-74
2022/08/06 05:53:43;;;;;;;3.17;1.65;;;18.20;99.90;;;;;;5130711;28;20039;-74
2022/08/06 05:56:17;;;;;;;4.68;1.60;;;18.20;99.90;;;;;;5131897;28;20027;-74
2022/08/06 05:58:52;;;;;;;6.25;1.63;;;18.20;99.90;;;;;;5126489;28;20328;-74
2022/08/06 06:01:18;;;;;;;5.35;2.00;;;18.30;99.90;;;;;;5131304;28;20094;-74
2022/08/06 06:03:45;;;;;;;2.13;1.30;;;18.30;99.90;;;;;;5130657;28;20041;-75
2022/08/06 06:06:12;;;;;;;2.15;1.63;;;18.40;99.90;;;;;;5131380;28;20031;-75
2022/08/06 06:08:38;;;;;;;3.08;1.50;;;18.40;99.90;;;;;;5132215;27;20084;-75
2022/08/06 06:11:09;;;;;;;4.22;1.83;;;18.50;99.90;;;;;;5135935;27;20435;-75
2022/08/06 06:13:36;;;;;;;2.67;1.52;;;18.60;99.90;;;;;;5134507;27;20491;-75
2022/08/06 06:16:24;;;;;;;4.18;1.67;;;18.60;99.90;;;;;;5135339;27;20027;-74
2022/08/06 06:19:10;;;;;;;6.95;1.60;;;18.70;99.90;;;;;;5124443;27;20023;-74
2022/08/06 06:21:55;;;;;;;2.33;1.33;;;18.70;99.90;;;;;;5134058;27;20031;-74
2022/08/06 06:24:40;;;;;;;3.88;1.55;;;18.80;99.90;;;;;;5135137;27;20114;-79
2022/08/06 06:27:29;;;;;;;6.32;1.38;;;18.90;99.90;;;;;;5125117;27;20055;-75
2022/08/06 06:30:01;;;;;;;3.42;1.55;;;18.90;99.90;;;;;;5133301;27;20372;-75
2022/08/06 06:32:35;;;;;;;3.45;1.60;;;18.90;99.90;;;;;;5132713;27;20054;-75
2022/08/06 06:35:16;;;;;;;5.47;1.52;;;18.90;99.90;;;;;;5135439;27;20027;-75
2022/08/06 06:37:51;;;;;;;5.38;2.17;;;18.90;99.90;;;;;;5134414;27;20015;-75
2022/08/06 06:40:33;;;;;;;5.68;2.13;;;18.80;99.90;;;;;;5133279;27;20023;-74
2022/08/06 06:43:10;;;;;;;4.88;1.90;;;18.80;99.90;;;;;;5122233;27;20068;-73
2022/08/06 06:46:10;;;;;;;8.77;1.58;;;18.80;99.90;;;;;;5133801;27;20063;-74
2022/08/06 06:48:48;;;;;;;2.97;1.70;;;18.80;99.90;;;;;;5133549;27;20479;-74
2022/08/06 06:51:30;;;;;;;2.15;1.58;;;18.80;99.90;;;;;;5123948;27;20463;-74
2022/08/06 06:53:56;;;;;;;4.03;1.77;;;18.90;99.90;;;;;;5134529;27;20023;-75
2022/08/06 06:56:26;;;;;;;3.38;2.00;;;18.90;99.90;;;;;;5134211;27;20023;-76
2022/08/06 06:58:55;;;;;;;2.90;1.90;;;19.00;99.90;;;;;;5134488;27;20020;-74
2022/08/06 07:01:21;;;;;;;4.43;2.00;;;19.00;99.90;;;;;;5130166;27;20031;-78
2022/08/06 07:03:49;;;;;;;4.03;1.60;;;18.90;99.90;;;;;;5124734;27;20032;-74
2022/08/06 07:06:16;;;;;;;3.20;1.40;;;18.90;99.90;;;;;;5134806;27;20088;-74
2022/08/06 07:08:46;;;;;;;2.22;1.38;;;19.00;99.90;;;;;;5132497;27;20094;-73
2022/08/06 07:11:20;;;;;;;2.95;1.55;;;19.30;99.90;;;;;;5134499;27;20053;-73
2022/08/06 07:13:47;;;;;;;3.85;1.80;;;19.40;99.90;;;;;;5104372;27;20364;-73
2022/08/06 07:16:15;;;;;;;3.00;1.60;;;19.40;99.90;;;;;;5130731;27;20031;-74
2022/08/06 07:18:43;;;;;;;4.72;1.85;;;19.30;99.90;;;;;;5119841;27;20630;-78
2022/08/06 07:21:12;;;;;;;3.50;1.70;;;19.20;99.90;;;;;;5130078;27;20035;-77
2022/08/06 07:23:38;;;;;;;3.40;1.58;;;19.30;99.90;;;;;;5131290;27;20031;-76
2022/08/06 07:26:05;;;;;;;4.82;1.83;;;19.40;99.90;;;;;;5125441;27;20039;-76
2022/08/06 07:28:32;;;;;;;3.88;2.13;;;19.50;99.70;;;;;;5129377;27;20068;-77
2022/08/06 07:31:02;;;;;;;2.28;1.80;;;19.30;99.80;;;;;;5132549;27;20019;-78
2022/08/06 07:33:28;;;;;;;;;;;19.30;99.90;;;;;;5121930;27;20046;-77
2022/08/06 07:35:55;;;;;;;3.08;1.95;;;19.30;99.90;;;;;;5133085;27;19908;-81
2022/08/06 07:38:25;;;;;;;3.28;1.70;;;19.30;99.90;;;;;;5129503;27;20027;-80
2022/08/06 07:40:52;;;;;;;;;;;19.40;99.90;;;;;;5132499;27;20083;-78
2022/08/06 07:43:23;;;;;;;2.40;1.85;;;19.40;99.90;;;;;;5131983;27;19904;-80
2022/08/06 07:45:50;;;;;;;3.78;2.20;;;19.40;99.90;;;;;;5127981;27;20041;-78
2022/08/06 07:48:21;;;;;;;4.28;1.88;;;19.40;99.90;;;;;;5131432;27;20023;-77
2022/08/06 07:50:49;;;;;;;3.67;1.90;;;19.50;99.80;;;;;;5131488;27;20020;-80
2022/08/06 07:53:16;;;;;;;4.13;1.70;;;19.70;99.70;;;;;;5131291;27;20383;-79
2022/08/06 07:55:43;;;;;;;4.85;1.70;;;19.90;99.60;;;;;;5130546;27;20033;-78
2022/08/06 07:58:10;;;;;;;3.22;2.00;;;20.00;99.30;;;;;;5128409;27;20031;-76
2022/08/06 08:00:37;;;;;;;4.60;1.70;;;20.30;99.30;;;;;;5131253;27;20437;-77
2022/08/06 08:08:33;;;;;;;4.07;1.83;;;20.30;98.40;;;;;;5121336;27;20169;-75
2022/08/06 08:11:00;;;;;;;3.20;1.80;;;20.00;98.30;;;;;;5130305;27;20023;-77
2022/08/06 08:13:26;;;;;;;4.22;1.88;;;19.80;98.70;;;;;;5132447;27;20039;-77
2022/08/06 08:15:54;;;;;;;2.72;1.83;;;19.70;98.50;;;;;;5131937;27;20046;-76
2022/08/06 08:18:20;;;;;;;3.85;1.65;;;19.60;98.60;;;;;;5129914;27;20031;-78
2022/08/06 08:20:46;;;;;;;6.15;1.77;;;19.50;98.70;;;;;;5129625;27;20028;-77
2022/08/06 08:23:14;;;;;;;3.45;1.75;;;19.50;98.80;;;;;;5132292;27;20106;-78
2022/08/06 08:25:40;;;;;;;4.68;1.77;;;19.40;98.90;;;;;;5130666;27;20059;-76
2022/08/06 08:28:07;;;;;;;2.20;1.90;;;19.30;99.10;;;;;;5131368;27;20023;-75
2022/08/06 08:30:33;;;;;;;2.20;1.80;;;19.30;99.20;;;;;;5128227;27;20053;-78
2022/08/06 08:32:58;;;;;;;4.10;2.35;;;19.30;99.20;;;;;;5126404;27;20023;-77
2022/08/06 08:35:24;;;;;;;7.53;2.00;;;19.30;99.30;;;;;;5125373;27;20023;-83
2022/08/06 08:37:50;;;;;;;5.13;2.35;;;19.40;99.40;;;;;;5131900;27;20027;-77
2022/08/06 08:40:15;;;;;;;4.88;1.88;;;19.40;99.50;;;;;;5127131;27;20023;-77
2022/08/06 08:42:48;;;;;;;4.53;1.77;;;19.50;99.20;;;;;;5116884;27;20617;-75
2022/08/06 08:45:15;;;;;;;2.90;1.60;;;19.70;99.20;;;;;;5124018;27;20031;-77
2022/08/06 08:47:45;;;;;;;2.72;1.90;;;20.10;98.80;;;;;;5132949;27;20051;-78
2022/08/06 08:50:11;;;;;;;;;;;20.50;97.50;;;;;;5133344;27;20459;-79
2022/08/06 08:52:39;;;;;;;3.72;1.70;;;20.70;97.00;;;;;;5130205;27;19910;-78
2022/08/06 08:55:08;;;;;;;2.35;1.70;;;20.90;97.10;;;;;;5129821;27;20694;-78
2022/08/06 08:57:35;;;;;;;5.10;1.90;;;20.90;96.30;;;;;;5126922;27;20027;-75
2022/08/06 09:00:02;;;;;;;3.42;1.75;;;20.80;96.70;;;;;;5129186;27;20471;-76
2022/08/06 09:02:29;;;;;;;4.10;1.65;;;20.80;96.80;;;;;;5126985;27;20019;-80
2022/08/06 09:04:55;;;;;;;3.53;1.60;;;20.90;96.60;;;;;;5130441;27;20019;-74
2022/08/06 09:07:21;;;;;;;2.58;1.88;;;20.90;96.50;;;;;;5130625;27;20042;-83
2022/08/06 09:09:47;;;;;;;2.10;1.77;;;21.00;96.00;;;;;;5124194;27;20145;-82
2022/08/06 09:12:13;;;;;;;2.47;1.75;;;21.10;96.20;;;;;;5132719;27;20117;-82
2022/08/06 09:14:43;;;;;;;3.90;1.88;;;21.10;96.10;;;;;;5110986;27;20026;-79
2022/08/06 09:17:09;;;;;;;4.35;1.80;;;21.20;95.80;;;;;;5130048;27;20035;-81
2022/08/06 09:19:35;;;;;;;3.42;2.00;;;21.30;95.40;;;;;;5131054;27;20384;-82
2022/08/06 09:22:00;;;;;;;3.63;1.77;;;21.50;95.50;;;;;;5128658;27;20026;-84
2022/08/06 09:24:26;;;;;;;2.15;1.42;;;21.80;94.20;;;;;;5137512;27;20443;-89
2022/08/06 09:27:05;;;;;;;2.13;1.58;;;22.00;93.80;;;;;;5112437;28;20042;-82
2022/08/06 09:29:31;;;;;;;2.90;1.85;;;22.00;93.80;;;;;;5130945;27;20019;-80
2022/08/06 09:31:57;;;;;;;1.50;1.40;;;22.00;93.30;;;;;;5113296;28;20114;-85
2022/08/06 09:34:31;;;;;;;2.83;1.55;;;22.10;93.70;;;;;;5130675;28;20467;-84
2022/08/06 09:36:57;;;;;;;4.65;1.85;;;22.10;93.10;;;;;;5113180;28;20023;-80
2022/08/06 09:39:40;;;;;;;4.57;1.80;;;22.20;92.70;;;;;;5129102;28;20041;-88
2022/08/06 09:42:07;;;;;;;4.25;1.58;;;22.30;93.00;;;;;;5133566;27;20020;-82
2022/08/06 09:44:33;;;;;;;6.85;1.73;;;22.40;93.20;;;;;;5116679;27;20046;-78
2022/08/06 09:47:00;;;;;;;5.38;1.50;;;22.60;92.40;;;;;;5136168;27;20476;-87
2022/08/06 09:49:43;;;;;;;4.40;1.75;;;22.70;92.50;;;;;;5116787;27;20900;-90
2022/08/06 09:52:18;;;;;;;6.57;1.60;;;22.70;91.40;;;;;;5135812;27;20028;-80
2022/08/06 09:54:44;;;;;;;3.85;1.65;;;22.60;91.70;;;;;;5133412;27;20154;-80
2022/08/06 09:57:10;;;;;;;2.50;1.35;;;22.50;91.00;;;;;;5135851;27;20031;-81
2022/08/06 09:59:46;;;;;;;4.32;1.30;;;22.40;91.60;;;;;;5135129;27;20030;-79
2022/08/06 10:02:17;;;;;;;4.93;1.80;;;22.40;91.80;;;;;;5135412;27;20080;-80
2022/08/06 10:04:43;;;;;;;2.67;1.40;;;22.50;91.40;;;;;;5126479;27;20019;-82
2022/08/06 10:07:10;;;;;;;2.75;1.50;;;22.60;90.60;;;;;;5135222;27;20107;-83
2022/08/06 10:09:38;;;;;;;2.90;1.48;;;22.80;90.60;;;;;;5135056;27;20023;-83
2022/08/06 10:12:18;;;;;;;5.47;1.58;;;22.80;90.60;;;;;;5135324;27;20023;-84
2022/08/06 10:14:44;;;;;;;3.80;1.50;;;22.90;90.50;;;;;;5135783;27;20030;-78
2022/08/06 10:17:15;;;;;;;3.83;1.45;;;23.00;90.30;;;;;;5136103;27;20126;-83
2022/08/06 10:19:46;;;;;;;2.88;1.60;;;23.00;90.30;;;;;;5129667;27;20062;-83
2022/08/06 10:22:16;;;;;;;5.95;2.08;;;23.10;89.70;;;;;;5135190;27;20023;-81
2022/08/06 10:24:45;;;;;;;2.63;1.60;;;23.10;88.70;;;;;;5130379;27;20024;-84
2022/08/06 10:27:22;;;;;;;1.75;1.38;;;23.10;89.90;;;;;;5134739;27;20043;-84
2022/08/06 10:29:57;;;;;;;2.45;1.50;;;23.20;88.80;;;;;;5135308;27;20038;-85
2022/08/06 10:32:30;;;;;;;3.33;1.52;;;23.00;87.80;;;;;;5116097;27;20023;-86
2022/08/06 10:35:00;;;;;;;3.47;1.58;;;23.10;89.30;;;;;;5111871;28;20032;-87
2022/08/06 10:37:26;;;;;;;3.15;1.58;;;23.10;89.10;;;;;;5115770;27;20034;-86
2022/08/06 10:39:58;;;;;;;3.58;1.60;;;23.30;87.80;;;;;;5135849;27;20019;-86
2022/08/06 10:42:24;;;;;;;2.75;1.40;;;23.60;86.50;;;;;;5134345;27;20110;-87
2022/08/06 10:44:51;;;;;;;3.33;1.85;;;23.80;84.30;;;;;;5114469;27;20031;-85
2022/08/06 10:47:17;;;;;;;4.03;1.40;;;23.90;86.00;;;;;;5135188;27;20031;-88
2022/08/06 10:49:44;;;;;;;4.35;1.92;;;24.00;86.10;;;;;;5134316;27;20098;-85
2022/08/06 10:52:12;;;;;;;2.95;1.45;;;24.20;84.70;;;;;;5135010;27;20028;-86
2022/08/06 10:54:39;;;;;;;3.00;1.55;;;24.40;84.90;;;;;;5115348;27;20019;-87
2022/08/06 10:57:08;;;;;;;4.35;1.88;;;24.70;83.90;;;;;;5135839;27;20175;-85
2022/08/06 10:59:34;;;;;;;4.45;1.60;;;24.90;80.70;;;;;;5134128;27;20023;-85
2022/08/06 11:02:18;;;;;;;2.08;1.65;;;24.90;81.30;;;;;;5134539;27;20589;-86
2022/08/06 11:05:00;;;;;;;2.13;1.38;;;25.10;80.60;;;;;;5113198;27;20060;-86
2022/08/06 11:07:56;;;;;;;4.63;2.08;;;25.20;80.50;;;;;;5126471;27;20038;-87
2022/08/06 11:10:34;;;;;;;2.72;1.73;;;25.40;79.70;;;;;;5132604;27;20033;-86
2022/08/06 11:13:24;;;;;;;5.28;1.50;;;25.40;77.70;;;;;;5134915;27;20472;-87
2022/08/06 11:15:50;;;;;;;3.53;1.67;;;25.30;78.10;;;;;;5130542;27;20079;-87
2022/08/06 11:18:17;;;;;;;2.15;1.63;;;25.10;77.90;;;;;;5134610;27;20102;-85
2022/08/06 11:20:45;;;;;;;1.55;1.40;;;25.20;79.10;;;;;;5133867;27;20071;-87
2022/08/06 11:23:14;;;;;;;2.47;1.42;;;25.30;78.30;;;;;;5115994;27;20364;-87
2022/08/06 11:25:51;;;;;;;5.38;1.65;;;25.40;76.30;;;;;;5115013;27;20050;-90
2022/08/06 11:28:37;;;;;;;2.25;1.70;;;25.50;76.30;;;;;;5135366;27;20035;-88
2022/08/06 11:31:06;;;;;;;1.85;1.30;;;25.50;75.30;;;;;;5097298;27;20084;-88
2022/08/06 11:33:35;;;;;;;2.00;1.60;;;25.10;74.70;;;;;;5135275;27;20047;-87
2022/08/06 11:36:09;;;;;;;4.53;1.08;;;25.10;75.10;;;;;;5132875;27;20058;-89
2022/08/06 11:38:49;;;;;;;3.08;1.45;;;25.30;75.50;;;;;;5136302;27;20155;-85
2022/08/06 11:41:22;;;;;;;6.28;1.65;;;25.80;74.20;;;;;;5115980;27;20023;-85
2022/08/06 11:43:53;;;;;;;3.00;1.50;;;25.80;74.10;;;;;;5117265;27;20030;-87
2022/08/06 11:46:38;;;;;;;4.03;1.48;;;25.70;74.80;;;;;;5134291;27;20031;-88
2022/08/06 11:49:11;;;;;;;2.13;1.40;;;25.60;74.90;;;;;;5129936;27;20042;-90
2022/08/06 11:52:00;;;;;;;3.30;1.45;;;25.40;74.70;;;;;;5133489;27;20027;-89
2022/08/06 11:54:28;;;;;;;5.90;1.80;;;25.20;75.20;;;;;;5132159;27;20116;-89
2022/08/06 11:57:06;;;;;;;3.80;1.50;;;25.10;75.60;;;;;;5115619;27;20161;-90
2022/08/06 11:59:44;;;;;;;3.78;1.90;;;25.20;75.70;;;;;;5125551;27;20019;-89
2022/08/06 12:02:12;;;;;;;4.43;1.60;;;25.20;75.20;;;;;;5109876;28;20020;-89
2022/08/06 12:04:39;;;;;;;5.38;2.03;;;25.30;74.50;;;;;;5128122;27;20023;-90
2022/08/06 12:07:23;;;;;;;2.42;1.48;;;25.20;73.80;;;;;;5131938;27;20490;-89
2022/08/06 12:10:01;;;;;;;6.43;2.20;;;25.10;73.70;;;;;;5129985;27;20031;-89
2022/08/06 12:12:30;;;;;;;2.92;1.77;;;25.50;73.70;;;;;;5115011;27;20380;-90
2022/08/06 12:14:58;;;;;;;3.60;1.58;;;26.00;73.20;;;;;;5134335;27;20054;-91
2022/08/06 12:17:26;;;;;;;4.97;1.60;;;26.40;72.20;;;;;;5133070;27;20031;-79
2022/08/06 12:19:55;;;;;;;4.68;1.55;;;27.00;70.90;;;;;;5133005;27;20026;-76
2022/08/06 12:22:22;;;;;;;2.55;1.50;;;27.50;69.80;;;;;;5132860;27;20027;-79
2022/08/06 12:24:54;;;;;;;2.88;1.30;;;27.90;70.00;;;;;;5132688;27;20471;-77
2022/08/06 12:27:21;;;;;;;3.85;1.55;;;28.50;68.50;;;;;;5132499;27;20043;-79
2022/08/06 12:29:46;;;;;;;2.45;1.50;;;29.10;66.10;;;;;;5132297;27;20019;-79
2022/08/06 12:32:28;;;;;;;6.47;1.60;;;29.60;65.70;;;;;;5130659;27;20535;-80
2022/08/06 12:34:56;;;;;;;2.80;1.33;;;28.70;65.60;;;;;;5129869;27;20031;-79
2022/08/06 12:37:36;;;;;;;2.72;1.70;;;27.80;66.90;;;;;;5131897;27;20035;-79
2022/08/06 12:40:26;;;;;;;3.80;1.58;;;26.60;68.60;;;;;;5114286;27;20031;-79
2022/08/06 12:42:54;;;;;;;2.88;1.50;;;25.80;69.70;;;;;;5131369;27;20098;-79
2022/08/06 12:45:24;;;;;;;5.28;1.40;;;25.10;71.90;;;;;;5132461;27;20028;-78
2022/08/06 12:48:17;;;;;;;4.70;1.20;;;25.40;71.60;;;;;;5132885;27;20057;-78
2022/08/06 12:50:43;;;;;;;8.77;1.58;;;25.70;71.40;;;;;;5128969;27;20022;-79
2022/08/06 12:53:16;;;;;;;2.78;1.60;;;26.50;69.80;;;;;;5132398;27;20027;-79
2022/08/06 12:55:44;;;;;;;5.43;1.63;;;27.20;69.50;;;;;;5131478;27;20038;-80
2022/08/06 12:58:12;;;;;;;6.53;1.60;;;27.90;67.30;;;;;;5130949;27;20019;-79
2022/08/06 13:00:39;;;;;;;5.10;2.05;;;28.20;66.90;;;;;;5132125;27;20034;-81
2022/08/06 13:03:06;;;;;;;2.90;1.30;;;28.10;65.40;;;;;;5132652;27;20025;-81
2022/08/06 13:05:34;;;;;;;3.58;1.60;;;28.40;65.80;;;;;;5129703;27;20023;-82
2022/08/06 13:08:01;;;;;;;2.78;1.33;;;28.80;64.80;;;;;;5132439;27;20023;-81
2022/08/06 13:10:27;;;;;;;2.38;1.45;;;28.90;62.60;;;;;;5131009;27;20027;-81